createdAt,value
2023-05-24T00:02:15.134Z,20.10
2023-05-24T00:04:42.884Z,13.40
2023-05-24T00:07:11.174Z,12.60
2023-05-24T00:09:38.745Z,14.90
2023-05-24T00:12:06.711Z,15.10
2023-05-24T00:14:34.470Z,13.30
2023-05-24T00:17:02.387Z,13.20
2023-05-24T00:19:29.875Z,13.80
2023-05-24T00:21:57.455Z,17.80
2023-05-24T00:24:25.007Z,12.30
2023-05-24T00:26:52.568Z,15.60
2023-05-24T00:29:20.030Z,14.90
2023-05-24T00:31:47.759Z,12.40
2023-05-24T00:34:16.164Z,11.50
2023-05-24T00:36:45.975Z,11.90
2023-05-24T00:39:13.530Z,10.90
2023-05-24T00:41:43.149Z,10.80
2023-05-24T00:44:11.414Z,16.80
2023-05-24T00:46:39.244Z,11.60
2023-05-24T00:49:06.843Z,16.00
2023-05-24T00:51:34.610Z,10.60
2023-05-24T00:54:02.164Z,12.80
2023-05-24T00:56:29.731Z,14.70
2023-05-24T00:58:57.410Z,16.40
2023-05-24T01:01:26.154Z,18.50
2023-05-24T01:03:54.664Z,11.90
2023-05-24T01:06:23.745Z,19.10
2023-05-24T01:09:13.735Z,16.10
2023-05-24T01:11:53.886Z,12.80
2023-05-24T01:14:21.552Z,21.20
2023-05-24T01:17:10.407Z,17.20
2023-05-24T01:22:14.692Z,14.20
2023-05-24T01:25:04.026Z,11.30
2023-05-24T01:27:32.692Z,12.80
2023-05-24T01:30:00.975Z,14.00
2023-05-24T01:32:29.130Z,13.10
2023-05-24T01:34:57.214Z,11.90
2023-05-24T01:37:24.873Z,14.30
2023-05-24T01:39:52.632Z,18.60
2023-05-24T01:42:44.301Z,16.30
2023-05-24T01:46:07.109Z,16.10
2023-05-24T01:48:43.357Z,15.60
2023-05-24T01:51:12.671Z,15.70
2023-05-24T01:53:42.995Z,13.50
2023-05-24T01:56:10.641Z,18.20
2023-05-24T01:58:39.645Z,15.20
2023-05-24T02:01:07.867Z,25.20
2023-05-24T02:03:38.261Z,14.10
2023-05-24T02:06:06.982Z,17.20
2023-05-24T02:08:34.463Z,15.10
2023-05-24T02:11:02.865Z,16.20
2023-05-24T02:13:30.479Z,12.50
2023-05-24T02:15:57.950Z,15.30
2023-05-24T02:18:26.468Z,13.60
2023-05-24T02:20:55.134Z,15.90
2023-05-24T02:23:23.107Z,15.60
2023-05-24T02:25:50.781Z,14.90
2023-05-24T02:28:18.546Z,16.90
2023-05-24T02:30:47.125Z,14.00
2023-05-24T02:33:14.808Z,11.10
2023-05-24T02:35:42.556Z,15.90
2023-05-24T02:38:10.320Z,15.70
2023-05-24T02:40:37.982Z,13.30
2023-05-24T02:43:05.738Z,14.40
2023-05-24T02:45:33.292Z,13.10
2023-05-24T02:48:00.977Z,12.70
2023-05-24T02:50:28.617Z,11.40
2023-05-24T02:52:56.179Z,18.30
2023-05-24T02:55:24.460Z,13.40
2023-05-24T02:57:52.935Z,12.10
2023-05-24T03:00:20.999Z,13.50
2023-05-24T03:02:51.321Z,12.80
2023-05-24T03:05:18.966Z,10.40
2023-05-24T03:07:46.429Z,12.50
2023-05-24T03:10:15.770Z,13.60
2023-05-24T03:12:44.323Z,9.10
2023-05-24T03:15:12.396Z,14.00
2023-05-24T03:17:40.107Z,11.40
2023-05-24T03:20:08.482Z,12.80
2023-05-24T03:22:36.118Z,12.40
2023-05-24T03:25:03.850Z,9.30
2023-05-24T03:27:31.456Z,11.60
2023-05-24T03:30:00.151Z,8.50
2023-05-24T03:32:28.433Z,10.00
2023-05-24T03:34:57.780Z,9.00
2023-05-24T03:37:25.752Z,13.70
2023-05-24T03:39:53.435Z,19.80
2023-05-24T03:42:31.928Z,14.10
2023-05-24T03:44:59.492Z,9.50
2023-05-24T03:47:27.396Z,9.90
2023-05-24T03:49:54.874Z,9.40
2023-05-24T03:52:22.515Z,10.90
2023-05-24T03:54:49.939Z,9.50
2023-05-24T03:57:17.791Z,10.10
2023-05-24T03:59:45.475Z,13.20
2023-05-24T04:02:13.150Z,10.30
2023-05-24T04:04:40.978Z,7.10
2023-05-24T04:07:12.093Z,9.20
2023-05-24T04:09:40.598Z,11.00
2023-05-24T04:12:08.475Z,10.00
2023-05-24T04:14:36.032Z,11.90
2023-05-24T04:17:06.058Z,15.10
2023-05-24T04:19:33.910Z,11.10
2023-05-24T04:22:01.561Z,10.60
2023-05-24T04:24:29.918Z,12.00
2023-05-24T04:26:58.736Z,10.70
2023-05-24T04:29:27.019Z,13.30
2023-05-24T04:31:56.525Z,12.10
2023-05-24T04:34:25.452Z,11.80
2023-05-24T04:36:53.302Z,14.20
2023-05-24T04:39:21.035Z,9.80
2023-05-24T04:41:51.563Z,11.80
2023-05-24T04:44:19.634Z,13.90
2023-05-24T04:46:47.244Z,9.60
2023-05-24T04:49:14.953Z,11.90
2023-05-24T04:51:42.511Z,9.80
2023-05-24T04:54:10.826Z,14.20
2023-05-24T04:56:39.076Z,12.00
2023-05-24T04:59:10.310Z,13.70
2023-05-24T05:01:38.001Z,16.50
2023-05-24T05:04:05.670Z,20.80
2023-05-24T05:06:38.477Z,11.20
2023-05-24T05:09:10.645Z,14.80
2023-05-24T05:11:39.261Z,14.70
2023-05-24T05:14:09.951Z,11.10
2023-05-24T05:16:38.972Z,13.00
2023-05-24T05:19:06.858Z,9.40
2023-05-24T05:21:35.745Z,11.90
2023-05-24T05:24:04.282Z,13.50
2023-05-24T05:26:31.994Z,9.00
2023-05-24T05:28:59.646Z,11.60
2023-05-24T05:31:27.304Z,19.60
2023-05-24T05:33:54.699Z,13.30
2023-05-24T05:36:22.126Z,9.90
2023-05-24T05:38:49.566Z,12.60
2023-05-24T05:41:17.560Z,13.20
2023-05-24T05:43:44.947Z,14.10
2023-05-24T05:49:32.150Z,9.60
2023-05-24T05:51:59.914Z,10.00
2023-05-24T05:54:28.622Z,11.80
2023-05-24T05:56:56.257Z,10.50
2023-05-24T05:59:23.911Z,9.40
2023-05-24T06:01:52.078Z,15.20
2023-05-24T06:04:19.627Z,11.90
2023-05-24T06:06:50.167Z,11.60
2023-05-24T06:09:17.632Z,18.00
2023-05-24T06:11:45.247Z,8.20
2023-05-24T06:14:13.668Z,16.90
2023-05-24T06:16:43.924Z,8.50
2023-05-24T06:19:12.490Z,12.10
2023-05-24T06:21:47.347Z,10.80
2023-05-24T06:24:15.923Z,17.10
2023-05-24T06:26:43.436Z,12.20
2023-05-24T06:29:11.100Z,8.60
2023-05-24T06:31:39.578Z,13.40
2023-05-24T06:34:07.546Z,12.00
2023-05-24T06:36:43.122Z,12.40
2023-05-24T06:39:11.267Z,13.20
2023-05-24T06:41:39.836Z,12.20
2023-05-24T06:44:07.409Z,10.40
2023-05-24T06:46:36.324Z,18.60
2023-05-24T06:49:04.016Z,15.50
2023-05-24T06:51:33.709Z,12.40
2023-05-24T06:54:01.856Z,11.90
2023-05-24T06:56:29.292Z,21.20
2023-05-24T06:58:56.957Z,13.40
2023-05-24T07:01:24.566Z,11.60
2023-05-24T07:03:52.178Z,13.00
2023-05-24T07:06:20.247Z,9.40
2023-05-24T07:08:47.807Z,12.00
2023-05-24T07:11:16.088Z,8.90
2023-05-24T07:13:44.150Z,7.50
2023-05-24T07:16:12.233Z,8.20
2023-05-24T07:18:42.014Z,9.40
2023-05-24T07:21:10.308Z,9.40
2023-05-24T07:23:38.176Z,5.60
2023-05-24T07:26:06.175Z,11.40
2023-05-24T07:28:34.735Z,8.90
2023-05-24T07:31:02.901Z,6.30
2023-05-24T07:33:30.417Z,7.20
2023-05-24T07:35:59.493Z,8.50
2023-05-24T07:38:27.007Z,7.00
2023-05-24T07:40:55.184Z,11.10
2023-05-24T07:43:22.673Z,9.20
2023-05-24T07:45:50.820Z,23.00
2023-05-24T07:48:22.820Z,6.60
2023-05-24T07:50:51.049Z,6.20
2023-05-24T07:53:19.837Z,13.70
2023-05-24T07:55:47.499Z,27.50
2023-05-24T07:58:15.609Z,7.30
2023-05-24T08:00:43.228Z,14.30
2023-05-24T08:03:13.601Z,6.40
2023-05-24T08:05:41.448Z,10.40
2023-05-24T08:08:09.823Z,8.00
2023-05-24T08:10:37.736Z,15.40
2023-05-24T08:13:06.043Z,10.90
2023-05-24T08:15:33.702Z,6.00
2023-05-24T08:18:01.393Z,8.10
2023-05-24T08:20:29.061Z,11.20
2023-05-24T08:22:56.785Z,4.50
2023-05-24T08:25:24.449Z,5.20
2023-05-24T08:27:52.724Z,6.10
2023-05-24T08:30:20.563Z,6.10
2023-05-24T08:32:48.160Z,5.20
2023-05-24T08:35:20.946Z,20.50
2023-05-24T08:37:49.931Z,20.50
2023-05-24T08:40:18.102Z,8.30
2023-05-24T08:42:46.775Z,6.90
2023-05-24T08:45:15.457Z,14.40
2023-05-24T08:47:43.170Z,12.90
2023-05-24T08:50:11.211Z,7.60
2023-05-24T08:52:39.867Z,4.00
2023-05-24T08:55:08.976Z,4.40
2023-05-24T08:57:39.829Z,6.50
2023-05-24T09:00:12.839Z,5.60
2023-05-24T09:02:42.463Z,6.60
2023-05-24T09:05:11.504Z,6.50
2023-05-24T09:07:39.104Z,7.30
2023-05-24T09:10:08.197Z,5.80
2023-05-24T09:12:39.021Z,6.20
2023-05-24T09:15:08.442Z,9.70
2023-05-24T09:17:37.215Z,7.60
2023-05-24T09:20:10.905Z,10.40
2023-05-24T09:22:42.278Z,10.80
2023-05-24T09:25:11.527Z,6.70
2023-05-24T09:27:39.394Z,5.80
2023-05-24T09:30:11.206Z,10.10
2023-05-24T09:32:39.033Z,4.70
2023-05-24T09:35:10.789Z,5.20
2023-05-24T09:37:42.147Z,7.90
2023-05-24T09:40:18.749Z,5.20
2023-05-24T09:42:47.269Z,5.00
2023-05-24T09:45:15.155Z,3.70
2023-05-24T09:47:43.833Z,7.20
2023-05-24T09:50:16.299Z,4.20
2023-05-24T09:52:43.890Z,4.80
2023-05-24T09:55:21.562Z,4.40
2023-05-24T09:58:04.385Z,3.80
2023-05-24T10:00:37.103Z,4.70
2023-05-24T10:03:07.466Z,8.60
2023-05-24T10:05:36.179Z,6.70
2023-05-24T10:08:05.457Z,2.90
2023-05-24T10:10:33.642Z,3.60
2023-05-24T10:13:02.033Z,7.60
2023-05-24T10:15:30.384Z,7.60
2023-05-24T10:17:58.325Z,5.90
2023-05-24T10:20:27.159Z,6.60
2023-05-24T10:23:02.867Z,8.50
2023-05-24T10:25:30.652Z,10.90
2023-05-24T10:28:01.080Z,7.80
2023-05-24T10:30:35.915Z,3.70
2023-05-24T10:33:05.204Z,19.80
2023-05-24T10:35:33.996Z,6.30
2023-05-24T10:38:06.781Z,20.80
2023-05-24T10:40:34.538Z,3.50
2023-05-24T10:43:07.018Z,7.00
2023-05-24T10:45:37.880Z,5.70
2023-05-24T10:48:29.181Z,4.00
2023-05-24T10:50:57.680Z,10.60
2023-05-24T10:53:28.580Z,12.00
2023-05-24T10:56:01.434Z,33.90
2023-05-24T10:58:46.314Z,8.10
2023-05-24T11:01:35.042Z,4.20
2023-05-24T11:04:15.749Z,8.30
2023-05-24T11:06:50.902Z,8.60
2023-05-24T11:09:20.395Z,3.50
2023-05-24T11:11:50.335Z,6.70
2023-05-24T11:14:24.639Z,8.00
2023-05-24T11:16:52.728Z,5.40
2023-05-24T11:19:22.197Z,4.90
2023-05-24T11:26:17.766Z,5.10
2023-05-24T11:28:45.403Z,5.20
2023-05-24T11:31:13.812Z,8.00
2023-05-24T11:33:41.591Z,6.90
2023-05-24T11:36:10.989Z,7.60
2023-05-24T11:38:38.918Z,8.20
2023-05-24T11:41:07.805Z,5.90
2023-05-24T11:43:36.694Z,6.90
2023-05-24T11:46:04.783Z,7.40
2023-05-24T11:48:33.082Z,6.90
2023-05-24T11:51:00.954Z,9.30
2023-05-24T11:53:29.177Z,4.60
2023-05-24T11:55:56.658Z,5.60
2023-05-24T11:58:26.451Z,10.70
2023-05-24T12:00:54.305Z,27.40
2023-05-24T12:03:22.268Z,16.20
2023-05-24T12:05:49.945Z,34.70
2023-05-24T12:08:17.707Z,15.40
2023-05-24T12:10:45.596Z,11.20
2023-05-24T12:13:24.483Z,16.40
2023-05-24T12:15:56.565Z,6.60
2023-05-24T12:18:29.865Z,68.90
2023-05-24T12:20:58.127Z,13.30
2023-05-24T12:23:32.352Z,22.40
2023-05-24T12:26:00.780Z,17.10
2023-05-24T12:28:32.608Z,15.00
2023-05-24T12:31:00.806Z,10.70
2023-05-24T12:33:28.514Z,9.00
2023-05-24T12:35:56.683Z,7.60
2023-05-24T12:38:28.237Z,6.40
2023-05-24T12:41:11.494Z,5.90
2023-05-24T12:43:41.018Z,13.90
2023-05-24T12:46:09.041Z,10.10
2023-05-24T12:48:36.699Z,4.90
2023-05-24T12:51:04.562Z,4.40
2023-05-24T12:53:32.648Z,7.60
2023-05-24T12:56:01.022Z,4.00
2023-05-24T12:58:29.187Z,6.30
2023-05-24T13:00:57.909Z,5.50
2023-05-24T13:03:25.548Z,3.70
2023-05-24T13:05:53.190Z,3.30
2023-05-24T13:08:21.065Z,4.90
2023-05-24T13:10:50.915Z,8.30
2023-05-24T13:13:18.736Z,6.00
2023-05-24T13:15:46.501Z,4.10
2023-05-24T13:18:14.326Z,5.40
2023-05-24T13:20:42.515Z,5.60
2023-05-24T13:23:10.609Z,2.40
2023-05-24T13:25:38.044Z,5.50
2023-05-24T13:28:05.625Z,5.70
2023-05-24T13:30:33.026Z,5.90
2023-05-24T13:33:00.671Z,6.80
2023-05-24T13:35:29.628Z,5.00
2023-05-24T13:37:58.246Z,2.20
2023-05-24T13:40:26.337Z,2.20
2023-05-24T13:42:57.005Z,2.70
2023-05-24T13:45:25.293Z,3.80
2023-05-24T13:47:53.976Z,2.10
2023-05-24T13:50:24.010Z,5.20
2023-05-24T13:52:51.653Z,2.00
2023-05-24T13:55:19.209Z,3.00
2023-05-24T13:57:51.364Z,4.60
2023-05-24T14:00:20.506Z,3.80
2023-05-24T14:02:48.597Z,4.10
2023-05-24T14:07:47.058Z,2.00
2023-05-24T14:10:14.810Z,4.00
2023-05-24T14:12:42.876Z,2.80
2023-05-24T14:15:11.059Z,2.60
2023-05-24T14:17:38.753Z,4.70
2023-05-24T14:20:07.599Z,6.10
2023-05-24T14:22:35.219Z,3.30
2023-05-24T14:25:02.814Z,3.50
2023-05-24T14:27:30.995Z,2.30
2023-05-24T14:29:58.546Z,3.50
2023-05-24T14:32:26.341Z,5.00
2023-05-24T14:34:54.885Z,3.00
2023-05-24T14:37:22.581Z,5.00
2023-05-24T14:39:50.118Z,5.80
2023-05-24T14:42:17.700Z,4.00
2023-05-24T14:44:45.338Z,3.20
2023-05-24T14:47:12.993Z,10.10
2023-05-24T14:49:40.471Z,5.30
2023-05-24T14:52:08.222Z,6.70
2023-05-24T14:54:35.668Z,8.40
2023-05-24T14:57:03.839Z,6.30
2023-05-24T14:59:31.400Z,4.00
2023-05-24T15:01:59.572Z,9.10
2023-05-24T15:04:28.362Z,5.20
2023-05-24T15:06:56.395Z,8.50
2023-05-24T15:09:24.089Z,5.40
2023-05-24T15:11:52.165Z,6.10
2023-05-24T15:14:19.834Z,9.30
2023-05-24T15:16:49.009Z,5.80
2023-05-24T15:19:16.464Z,4.10
2023-05-24T15:21:43.985Z,4.90
2023-05-24T15:24:13.457Z,6.30
2023-05-24T15:26:41.307Z,6.50
2023-05-24T15:29:09.419Z,4.80
2023-05-24T15:31:37.074Z,3.40
2023-05-24T15:34:06.134Z,6.80
2023-05-24T15:36:34.004Z,2.90
2023-05-24T15:39:01.709Z,3.90
2023-05-24T15:41:29.540Z,7.00
2023-05-24T15:43:58.415Z,3.00
2023-05-24T15:46:26.013Z,6.00
2023-05-24T15:48:54.253Z,4.90
2023-05-24T15:52:01.715Z,6.50
2023-05-24T15:54:09.335Z,8.10
2023-05-24T15:56:37.422Z,5.70
2023-05-24T15:59:05.063Z,6.80
2023-05-24T16:01:32.877Z,4.70
2023-05-24T16:04:00.848Z,7.00
2023-05-24T16:06:29.279Z,8.30
2023-05-24T16:08:56.938Z,5.60
2023-05-24T16:11:25.113Z,3.90
2023-05-24T16:13:54.406Z,4.10
2023-05-24T16:16:24.361Z,4.60
2023-05-24T16:18:51.980Z,6.20
2023-05-24T16:21:20.458Z,2.50
2023-05-24T16:23:48.255Z,2.80
2023-05-24T16:26:16.397Z,2.50
2023-05-24T16:28:44.380Z,3.30
2023-05-24T16:31:12.748Z,3.50
2023-05-24T16:33:41.024Z,2.50
2023-05-24T16:36:09.213Z,2.60
2023-05-24T16:38:37.979Z,2.90
2023-05-24T16:41:06.282Z,4.30
2023-05-24T16:43:33.955Z,2.90
2023-05-24T16:46:02.218Z,1.90
2023-05-24T16:48:31.867Z,2.20
2023-05-24T16:51:00.328Z,5.30
2023-05-24T16:53:28.142Z,1.90
2023-05-24T16:55:56.460Z,2.10
2023-05-24T16:58:25.367Z,3.50
2023-05-24T17:00:54.609Z,5.00
2023-05-24T17:03:28.390Z,1.30
2023-05-24T17:05:59.386Z,4.90
2023-05-24T17:08:28.904Z,1.40
2023-05-24T17:10:57.203Z,5.80
2023-05-24T17:13:27.395Z,2.00
2023-05-24T17:15:55.747Z,5.30
2023-05-24T17:18:29.851Z,6.50
2023-05-24T17:20:58.333Z,3.10
2023-05-24T17:23:26.552Z,1.80
2023-05-24T17:25:55.562Z,4.40
2023-05-24T17:28:30.217Z,4.60
2023-05-24T17:30:58.843Z,5.50
2023-05-24T17:33:28.149Z,8.60
2023-05-24T17:36:01.195Z,5.70
2023-05-24T17:38:29.153Z,6.50
2023-05-24T17:40:59.659Z,2.10
2023-05-24T17:43:34.211Z,4.00
2023-05-24T17:46:04.207Z,3.20
2023-05-24T17:48:33.017Z,7.40
2023-05-24T17:51:01.365Z,2.60
2023-05-24T17:53:32.183Z,10.60
2023-05-24T17:56:00.308Z,6.00
2023-05-24T17:58:30.903Z,2.40
2023-05-24T18:00:58.897Z,2.60
2023-05-24T18:03:26.547Z,3.50
2023-05-24T18:05:54.111Z,5.80
2023-05-24T18:08:22.700Z,7.10
2023-05-24T18:10:50.353Z,7.00
2023-05-24T18:13:17.834Z,5.10
2023-05-24T18:15:45.699Z,4.10
2023-05-24T18:18:13.716Z,6.70
2023-05-24T18:20:41.529Z,7.50
2023-05-24T18:23:09.367Z,6.40
2023-05-24T18:25:37.028Z,9.80
2023-05-24T18:28:04.692Z,9.70
2023-05-24T18:30:32.128Z,5.10
2023-05-24T18:33:07.155Z,9.50
2023-05-24T18:35:35.845Z,7.80
2023-05-24T18:38:04.434Z,5.40
2023-05-24T18:40:32.011Z,5.90
2023-05-24T18:42:59.475Z,9.40
2023-05-24T18:45:27.232Z,5.20
2023-05-24T18:47:54.727Z,6.10
2023-05-24T18:50:23.598Z,5.70
2023-05-24T18:52:51.760Z,5.20
2023-05-24T18:55:19.412Z,6.40
2023-05-24T18:57:47.068Z,4.30
2023-05-24T19:00:14.883Z,14.40
2023-05-24T19:02:42.579Z,5.00
2023-05-24T19:05:10.229Z,11.50
2023-05-24T19:07:38.648Z,8.30
2023-05-24T19:10:07.126Z,5.20
2023-05-24T19:12:34.778Z,8.60
2023-05-24T19:15:03.162Z,4.80
2023-05-24T19:17:30.863Z,5.60
2023-05-24T19:19:58.588Z,9.30
2023-05-24T19:22:29.417Z,10.10
2023-05-24T19:24:57.267Z,8.50
2023-05-24T19:27:24.846Z,13.10
2023-05-24T19:29:52.400Z,8.90
2023-05-24T19:32:23.107Z,8.00
2023-05-24T19:34:52.345Z,10.50
2023-05-24T19:37:21.222Z,9.00
2023-05-24T19:39:48.784Z,11.10
2023-05-24T19:42:16.222Z,18.60
2023-05-24T19:44:43.790Z,10.60
2023-05-24T19:47:11.891Z,15.40
2023-05-24T19:49:39.424Z,15.90
2023-05-24T19:52:07.400Z,7.20
2023-05-24T19:54:35.051Z,11.50
2023-05-24T19:57:02.813Z,9.50
2023-05-24T19:59:30.408Z,9.40
2023-05-24T20:01:58.072Z,11.40
2023-05-24T20:04:25.592Z,7.70
2023-05-24T20:06:53.286Z,9.60
2023-05-24T20:09:20.915Z,11.40
2023-05-24T20:11:49.094Z,15.10
2023-05-24T20:14:18.292Z,11.30
2023-05-24T20:16:46.301Z,7.80
2023-05-24T20:19:14.120Z,8.50
2023-05-24T20:21:41.987Z,10.30
2023-05-24T20:24:09.542Z,7.90
2023-05-24T20:26:37.925Z,8.10
2023-05-24T20:29:05.524Z,7.40
2023-05-24T20:31:33.671Z,7.60
2023-05-24T20:34:01.450Z,12.10
2023-05-24T20:36:29.183Z,14.60
2023-05-24T20:38:56.744Z,12.10
2023-05-24T20:41:25.225Z,12.00
2023-05-24T20:43:52.889Z,9.00
2023-05-24T20:46:22.978Z,7.70
2023-05-24T20:48:51.071Z,7.10
2023-05-24T20:51:19.651Z,14.20
2023-05-24T20:53:49.256Z,9.90
2023-05-24T20:56:18.039Z,10.30
2023-05-24T20:58:46.422Z,9.90
2023-05-24T21:01:13.894Z,10.40
2023-05-24T21:03:41.680Z,12.60
2023-05-24T21:06:09.407Z,21.30
2023-05-24T21:08:37.113Z,7.80
2023-05-24T21:11:04.657Z,13.90
2023-05-24T21:13:32.286Z,14.20
2023-05-24T21:15:59.880Z,7.90
2023-05-24T21:18:27.363Z,8.50
2023-05-24T21:20:54.889Z,8.60
2023-05-24T21:23:22.730Z,9.80
2023-05-24T21:25:50.204Z,10.40
2023-05-24T21:28:18.252Z,10.90
2023-05-24T21:30:46.040Z,9.40
2023-05-24T21:33:13.612Z,23.00
2023-05-24T21:35:41.361Z,50.50
2023-05-24T21:38:09.303Z,61.60
2023-05-24T21:40:36.964Z,57.10
2023-05-24T21:43:05.584Z,63.30
2023-05-24T21:45:33.211Z,29.90
2023-05-24T21:48:01.698Z,21.60
2023-05-24T21:50:29.660Z,31.30
2023-05-24T21:52:57.216Z,20.40
2023-05-24T21:55:25.226Z,15.40
2023-05-24T21:57:53.354Z,15.10
2023-05-24T22:00:21.530Z,12.60
2023-05-24T22:02:49.235Z,14.70
2023-05-24T22:05:16.803Z,12.00
2023-05-24T22:07:44.511Z,13.00
2023-05-24T22:10:12.913Z,10.90
2023-05-24T22:12:40.756Z,11.40
2023-05-24T22:15:09.247Z,19.30
2023-05-24T22:17:37.270Z,30.20
2023-05-24T22:20:06.287Z,41.30
2023-05-24T22:22:33.962Z,27.30
2023-05-24T22:25:02.273Z,25.00
2023-05-24T22:27:30.148Z,27.90
2023-05-24T22:29:57.966Z,34.10
2023-05-24T22:32:26.359Z,18.90
2023-05-24T22:34:54.007Z,15.10
2023-05-24T22:37:21.594Z,19.10
2023-05-24T22:39:49.227Z,22.90
2023-05-24T22:42:16.812Z,25.20
2023-05-24T22:44:44.451Z,30.10
2023-05-24T22:47:14.171Z,24.30
2023-05-24T22:49:41.923Z,19.40
2023-05-24T22:52:09.685Z,19.70
2023-05-24T22:54:37.116Z,15.50
2023-05-24T22:57:06.030Z,18.20
2023-05-24T22:59:33.589Z,17.40
2023-05-24T23:02:01.248Z,20.20
2023-05-24T23:04:29.274Z,17.60
2023-05-24T23:06:57.293Z,16.00
2023-05-24T23:09:35.096Z,10.10
2023-05-24T23:12:10.632Z,18.00
2023-05-24T23:14:39.337Z,9.70
2023-05-24T23:17:10.351Z,9.00
2023-05-24T23:19:42.660Z,13.50
2023-05-24T23:22:18.665Z,16.20
2023-05-24T23:24:47.504Z,13.00
2023-05-24T23:27:15.252Z,12.80
2023-05-24T23:29:42.789Z,13.00
2023-05-24T23:32:10.776Z,14.30
2023-05-24T23:34:38.525Z,17.20
2023-05-24T23:37:06.393Z,10.30
2023-05-24T23:41:56.017Z,11.50
2023-05-24T23:44:23.949Z,11.10
2023-05-24T23:46:52.281Z,17.20
2023-05-24T23:49:20.622Z,19.90
2023-05-24T23:51:48.263Z,18.20
2023-05-24T23:54:16.146Z,23.80
2023-05-24T23:56:43.789Z,18.60
2023-05-24T23:59:11.347Z,16.40
